sensor_id;sensor_type;location;lat;lon;timestamp;temperature;humidity
2897;DHT22;1458;49.728;9.228;2023-04-01T00:00:11;10.60;99.90
2897;DHT22;1458;49.728;9.228;2023-04-01T00:02:39;10.60;99.90
2897;DHT22;1458;49.728;9.228;2023-04-01T00:05:09;10.60;99.90
2897;DHT22;1458;49.728;9.228;2023-04-01T00:07:37;10.60;99.90
2897;DHT22;1458;49.728;9.228;2023-04-01T00:10:05;10.50;99.90
2897;DHT22;1458;49.728;9.228;2023-04-01T00:12:34;10.50;99.90
2897;DHT22;1458;49.728;9.228;2023-04-01T00:15:03;10.50;99.90
2897;DHT22;1458;49.728;9.228;2023-04-01T00:17:32;10.50;99.90
2897;DHT22;1458;49.728;9.228;2023-04-01T00:19:59;10.50;99.90
2897;DHT22;1458;49.728;9.228;2023-04-01T00:22:29;10.50;99.90
2897;DHT22;1458;49.728;9.228;2023-04-01T00:24:57;10.50;99.90
2897;DHT22;1458;49.728;9.228;2023-04-01T00:27:24;10.50;99.90
2897;DHT22;1458;49.728;9.228;2023-04-01T00:29:52;10.60;99.90
2897;DHT22;1458;49.728;9.228;2023-04-01T00:32:19;10.60;99.90
2897;DHT22;1458;49.728;9.228;2023-04-01T00:34:50;10.60;99.90
2897;DHT22;1458;49.728;9.228;2023-04-01T00:37:19;10.60;99.90
2897;DHT22;1458;49.728;9.228;2023-04-01T00:39:50;10.60;99.90
2897;DHT22;1458;49.728;9.228;2023-04-01T00:42:17;10.60;99.90
2897;DHT22;1458;49.728;9.228;2023-04-01T00:44:46;10.60;99.90
2897;DHT22;1458;49.728;9.228;2023-04-01T00:47:17;10.60;99.90
2897;DHT22;1458;49.728;9.228;2023-04-01T00:49:47;10.50;99.90
2897;DHT22;1458;49.728;9.228;2023-04-01T00:52:20;10.50;99.90
2897;DHT22;1458;49.728;9.228;2023-04-01T00:54:55;10.50;99.90
2897;DHT22;1458;49.728;9.228;2023-04-01T00:57:29;10.50;99.90
2897;DHT22;1458;49.728;9.228;2023-04-01T00:59:59;10.50;99.90
2897;DHT22;1458;49.728;9.228;2023-04-01T01:02:26;10.50;99.90
2897;DHT22;1458;49.728;9.228;2023-04-01T01:04:54;10.50;99.90
2897;DHT22;1458;49.728;9.228;2023-04-01T01:07:26;10.60;99.90
2897;DHT22;1458;49.728;9.228;2023-04-01T01:10:03;10.50;99.90
2897;DHT22;1458;49.728;9.228;2023-04-01T01:12:38;10.50;99.90
2897;DHT22;1458;49.728;9.228;2023-04-01T01:15:13;10.50;99.90
2897;DHT22;1458;49.728;9.228;2023-04-01T01:17:53;10.50;99.90
2897;DHT22;1458;49.728;9.228;2023-04-01T01:27:04;10.50;99.90
2897;DHT22;1458;49.728;9.228;2023-04-01T01:29:58;10.50;99.90
2897;DHT22;1458;49.728;9.228;2023-04-01T01:35:46;10.50;99.90
2897;DHT22;1458;49.728;9.228;2023-04-01T01:38:21;10.50;99.90
2897;DHT22;1458;49.728;9.228;2023-04-01T01:41:01;10.50;99.90
2897;DHT22;1458;49.728;9.228;2023-04-01T01:43:31;10.50;99.90
2897;DHT22;1458;49.728;9.228;2023-04-01T01:46:04;10.40;99.90
2897;DHT22;1458;49.728;9.228;2023-04-01T01:48:35;10.50;99.90
2897;DHT22;1458;49.728;9.228;2023-04-01T01:51:05;10.50;99.90
2897;DHT22;1458;49.728;9.228;2023-04-01T01:53:33;10.50;99.90
2897;DHT22;1458;49.728;9.228;2023-04-01T01:56:01;10.50;99.90
2897;DHT22;1458;49.728;9.228;2023-04-01T01:58:34;10.50;99.90
2897;DHT22;1458;49.728;9.228;2023-04-01T02:01:10;10.50;99.90
2897;DHT22;1458;49.728;9.228;2023-04-01T02:03:40;10.40;99.90
2897;DHT22;1458;49.728;9.228;2023-04-01T02:06:13;10.30;99.90
2897;DHT22;1458;49.728;9.228;2023-04-01T02:08:45;10.40;99.90
2897;DHT22;1458;49.728;9.228;2023-04-01T02:11:16;10.40;99.90
2897;DHT22;1458;49.728;9.228;2023-04-01T02:13:51;10.40;99.90
2897;DHT22;1458;49.728;9.228;2023-04-01T02:16:24;10.40;99.90
2897;DHT22;1458;49.728;9.228;2023-04-01T02:18:56;10.40;99.90
2897;DHT22;1458;49.728;9.228;2023-04-01T02:21:29;10.40;99.90
2897;DHT22;1458;49.728;9.228;2023-04-01T02:23:59;10.40;99.90
2897;DHT22;1458;49.728;9.228;2023-04-01T02:26:28;10.40;99.90
2897;DHT22;1458;49.728;9.228;2023-04-01T02:28:58;10.40;99.90
2897;DHT22;1458;49.728;9.228;2023-04-01T02:31:27;10.50;99.90
2897;DHT22;1458;49.728;9.228;2023-04-01T02:33:55;10.40;99.90
2897;DHT22;1458;49.728;9.228;2023-04-01T02:36:23;10.40;99.90
2897;DHT22;1458;49.728;9.228;2023-04-01T02:38:54;10.40;99.90
2897;DHT22;1458;49.728;9.228;2023-04-01T02:41:22;10.40;99.90
2897;DHT22;1458;49.728;9.228;2023-04-01T02:43:50;10.40;99.90
2897;DHT22;1458;49.728;9.228;2023-04-01T02:46:17;10.40;99.90
2897;DHT22;1458;49.728;9.228;2023-04-01T02:48:45;10.50;99.90
2897;DHT22;1458;49.728;9.228;2023-04-01T02:51:12;10.50;99.90
2897;DHT22;1458;49.728;9.228;2023-04-01T02:53:41;10.50;99.90
2897;DHT22;1458;49.728;9.228;2023-04-01T02:56:09;10.50;99.90
2897;DHT22;1458;49.728;9.228;2023-04-01T02:58:36;10.50;99.90
2897;DHT22;1458;49.728;9.228;2023-04-01T03:01:04;10.40;99.90
2897;DHT22;1458;49.728;9.228;2023-04-01T03:03:31;10.40;99.90
2897;DHT22;1458;49.728;9.228;2023-04-01T03:06:05;10.40;99.90
2897;DHT22;1458;49.728;9.228;2023-04-01T03:08:32;10.40;99.90
2897;DHT22;1458;49.728;9.228;2023-04-01T03:11:02;10.40;99.90
2897;DHT22;1458;49.728;9.228;2023-04-01T03:13:32;10.40;99.90
2897;DHT22;1458;49.728;9.228;2023-04-01T03:15:59;10.40;99.90
2897;DHT22;1458;49.728;9.228;2023-04-01T03:18:27;10.40;99.90
2897;DHT22;1458;49.728;9.228;2023-04-01T03:20:56;10.40;99.90
2897;DHT22;1458;49.728;9.228;2023-04-01T03:23:24;10.40;99.90
2897;DHT22;1458;49.728;9.228;2023-04-01T03:25:51;10.40;99.90
2897;DHT22;1458;49.728;9.228;2023-04-01T03:28:20;10.40;99.90
2897;DHT22;1458;49.728;9.228;2023-04-01T03:30:47;10.40;99.90
2897;DHT22;1458;49.728;9.228;2023-04-01T03:33:15;10.40;99.90
2897;DHT22;1458;49.728;9.228;2023-04-01T03:35:42;10.40;99.90
2897;DHT22;1458;49.728;9.228;2023-04-01T03:38:10;10.40;99.90
2897;DHT22;1458;49.728;9.228;2023-04-01T03:40:38;10.40;99.90
2897;DHT22;1458;49.728;9.228;2023-04-01T03:43:09;10.40;99.90
2897;DHT22;1458;49.728;9.228;2023-04-01T03:45:43;10.50;99.90
2897;DHT22;1458;49.728;9.228;2023-04-01T03:48:13;10.50;99.90
2897;DHT22;1458;49.728;9.228;2023-04-01T03:50:40;10.50;99.90
2897;DHT22;1458;49.728;9.228;2023-04-01T03:53:08;10.50;99.90
2897;DHT22;1458;49.728;9.228;2023-04-01T03:55:37;10.50;99.90
2897;DHT22;1458;49.728;9.228;2023-04-01T03:58:05;10.50;99.90
2897;DHT22;1458;49.728;9.228;2023-04-01T04:00:34;10.40;99.90
2897;DHT22;1458;49.728;9.228;2023-04-01T04:03:05;10.50;99.90
2897;DHT22;1458;49.728;9.228;2023-04-01T04:05:35;10.50;99.90
2897;DHT22;1458;49.728;9.228;2023-04-01T04:08:03;10.50;99.90
2897;DHT22;1458;49.728;9.228;2023-04-01T04:10:31;10.50;99.40
2897;DHT22;1458;49.728;9.228;2023-04-01T04:13:00;10.50;98.80
2897;DHT22;1458;49.728;9.228;2023-04-01T04:15:30;10.40;99.10
2897;DHT22;1458;49.728;9.228;2023-04-01T04:17:57;10.50;98.40
2897;DHT22;1458;49.728;9.228;2023-04-01T04:20:26;10.50;98.50
2897;DHT22;1458;49.728;9.228;2023-04-01T04:22:54;10.50;98.70
2897;DHT22;1458;49.728;9.228;2023-04-01T04:25:21;10.50;98.80
2897;DHT22;1458;49.728;9.228;2023-04-01T04:27:49;10.50;98.20
2897;DHT22;1458;49.728;9.228;2023-04-01T04:30:16;10.40;98.00
2897;DHT22;1458;49.728;9.228;2023-04-01T04:32:44;10.40;98.00
2897;DHT22;1458;49.728;9.228;2023-04-01T04:35:12;10.40;98.10
2897;DHT22;1458;49.728;9.228;2023-04-01T04:37:41;10.40;97.80
2897;DHT22;1458;49.728;9.228;2023-04-01T04:40:11;10.40;98.10
2897;DHT22;1458;49.728;9.228;2023-04-01T04:42:38;10.30;98.00
2897;DHT22;1458;49.728;9.228;2023-04-01T04:45:10;10.30;98.00
2897;DHT22;1458;49.728;9.228;2023-04-01T04:47:43;10.30;98.30
2897;DHT22;1458;49.728;9.228;2023-04-01T04:50:11;10.40;97.70
2897;DHT22;1458;49.728;9.228;2023-04-01T04:52:41;10.40;97.80
2897;DHT22;1458;49.728;9.228;2023-04-01T04:55:08;10.30;98.30
2897;DHT22;1458;49.728;9.228;2023-04-01T04:57:37;10.30;98.60
2897;DHT22;1458;49.728;9.228;2023-04-01T05:00:05;10.30;99.20
2897;DHT22;1458;49.728;9.228;2023-04-01T05:02:51;10.30;99.90
2897;DHT22;1458;49.728;9.228;2023-04-01T05:05:18;10.10;99.90
2897;DHT22;1458;49.728;9.228;2023-04-01T05:07:47;10.00;99.90
2897;DHT22;1458;49.728;9.228;2023-04-01T05:10:15;9.90;99.90
2897;DHT22;1458;49.728;9.228;2023-04-01T05:12:42;9.80;99.90
2897;DHT22;1458;49.728;9.228;2023-04-01T05:15:14;9.70;99.90
2897;DHT22;1458;49.728;9.228;2023-04-01T05:17:42;9.60;99.90
2897;DHT22;1458;49.728;9.228;2023-04-01T05:20:12;9.50;99.90
2897;DHT22;1458;49.728;9.228;2023-04-01T05:22:42;9.40;99.90
2897;DHT22;1458;49.728;9.228;2023-04-01T05:25:11;9.50;99.90
2897;DHT22;1458;49.728;9.228;2023-04-01T05:27:38;9.40;99.90
2897;DHT22;1458;49.728;9.228;2023-04-01T05:30:07;9.20;99.90
2897;DHT22;1458;49.728;9.228;2023-04-01T05:32:43;9.20;99.90
2897;DHT22;1458;49.728;9.228;2023-04-01T05:35:10;9.30;99.90
2897;DHT22;1458;49.728;9.228;2023-04-01T05:37:38;9.20;99.90
2897;DHT22;1458;49.728;9.228;2023-04-01T05:40:08;9.30;99.90
2897;DHT22;1458;49.728;9.228;2023-04-01T05:42:37;9.20;99.90
2897;DHT22;1458;49.728;9.228;2023-04-01T05:45:06;9.30;99.90
2897;DHT22;1458;49.728;9.228;2023-04-01T05:48:07;9.30;99.90
2897;DHT22;1458;49.728;9.228;2023-04-01T05:50:40;9.30;99.90
2897;DHT22;1458;49.728;9.228;2023-04-01T05:53:09;9.40;99.90
2897;DHT22;1458;49.728;9.228;2023-04-01T05:55:39;9.40;99.90
2897;DHT22;1458;49.728;9.228;2023-04-01T05:58:08;9.40;99.90
2897;DHT22;1458;49.728;9.228;2023-04-01T06:00:38;9.40;99.90
2897;DHT22;1458;49.728;9.228;2023-04-01T06:03:06;9.40;99.90
2897;DHT22;1458;49.728;9.228;2023-04-01T06:05:39;9.40;99.90
2897;DHT22;1458;49.728;9.228;2023-04-01T06:08:11;9.40;99.90
2897;DHT22;1458;49.728;9.228;2023-04-01T06:11:04;9.40;99.90
2897;DHT22;1458;49.728;9.228;2023-04-01T06:13:59;9.40;99.90
2897;DHT22;1458;49.728;9.228;2023-04-01T06:16:45;9.40;99.90
2897;DHT22;1458;49.728;9.228;2023-04-01T06:19:25;9.40;99.90
2897;DHT22;1458;49.728;9.228;2023-04-01T06:22:35;9.50;99.90
2897;DHT22;1458;49.728;9.228;2023-04-01T06:28:43;9.50;99.90
2897;DHT22;1458;49.728;9.228;2023-04-01T06:31:26;9.60;99.90
2897;DHT22;1458;49.728;9.228;2023-04-01T06:34:31;9.70;99.90
2897;DHT22;1458;49.728;9.228;2023-04-01T06:37:23;9.70;99.90
2897;DHT22;1458;49.728;9.228;2023-04-01T06:40:21;9.80;99.90
2897;DHT22;1458;49.728;9.228;2023-04-01T06:43:08;9.80;99.90
2897;DHT22;1458;49.728;9.228;2023-04-01T06:46:09;9.80;99.90
2897;DHT22;1458;49.728;9.228;2023-04-01T06:49:21;10.00;99.90
2897;DHT22;1458;49.728;9.228;2023-04-01T06:52:22;10.10;99.90
2897;DHT22;1458;49.728;9.228;2023-04-01T06:55:23;10.20;99.90
2897;DHT22;1458;49.728;9.228;2023-04-01T06:58:16;10.30;99.90
2897;DHT22;1458;49.728;9.228;2023-04-01T07:00:50;10.40;99.90
2897;DHT22;1458;49.728;9.228;2023-04-01T07:03:26;10.40;99.90
2897;DHT22;1458;49.728;9.228;2023-04-01T07:06:02;10.40;99.90
2897;DHT22;1458;49.728;9.228;2023-04-01T07:08:35;10.40;99.90
2897;DHT22;1458;49.728;9.228;2023-04-01T07:11:06;10.40;99.90
2897;DHT22;1458;49.728;9.228;2023-04-01T07:13:52;10.50;99.90
2897;DHT22;1458;49.728;9.228;2023-04-01T07:16:26;10.60;99.90
2897;DHT22;1458;49.728;9.228;2023-04-01T07:19:02;10.50;99.90
2897;DHT22;1458;49.728;9.228;2023-04-01T07:21:49;10.40;99.90
2897;DHT22;1458;49.728;9.228;2023-04-01T07:24:32;10.50;99.90
2897;DHT22;1458;49.728;9.228;2023-04-01T07:27:08;10.50;99.90
2897;DHT22;1458;49.728;9.228;2023-04-01T07:29:38;10.70;99.90
2897;DHT22;1458;49.728;9.228;2023-04-01T07:32:22;10.70;99.90
2897;DHT22;1458;49.728;9.228;2023-04-01T07:35:14;10.70;99.90
2897;DHT22;1458;49.728;9.228;2023-04-01T07:37:53;10.80;99.90
2897;DHT22;1458;49.728;9.228;2023-04-01T07:40:33;10.80;99.90
2897;DHT22;1458;49.728;9.228;2023-04-01T07:43:30;10.80;99.90
2897;DHT22;1458;49.728;9.228;2023-04-01T07:46:39;10.50;99.90
2897;DHT22;1458;49.728;9.228;2023-04-01T07:49:17;10.50;99.90
2897;DHT22;1458;49.728;9.228;2023-04-01T07:51:55;10.40;99.90
2897;DHT22;1458;49.728;9.228;2023-04-01T07:54:33;10.30;99.90
2897;DHT22;1458;49.728;9.228;2023-04-01T07:57:10;10.40;99.90
2897;DHT22;1458;49.728;9.228;2023-04-01T07:59:51;10.40;99.90
2897;DHT22;1458;49.728;9.228;2023-04-01T08:02:38;10.60;99.90
2897;DHT22;1458;49.728;9.228;2023-04-01T08:05:22;10.70;99.90
2897;DHT22;1458;49.728;9.228;2023-04-01T08:08:03;10.80;99.90
2897;DHT22;1458;49.728;9.228;2023-04-01T08:11:12;10.80;99.90
2897;DHT22;1458;49.728;9.228;2023-04-01T08:14:13;11.00;99.90
2897;DHT22;1458;49.728;9.228;2023-04-01T08:17:22;10.90;99.90
2897;DHT22;1458;49.728;9.228;2023-04-01T08:20:02;11.20;99.90
2897;DHT22;1458;49.728;9.228;2023-04-01T08:22:40;11.30;99.90
2897;DHT22;1458;49.728;9.228;2023-04-01T08:25:21;11.30;99.90
2897;DHT22;1458;49.728;9.228;2023-04-01T08:27:56;11.40;99.90
2897;DHT22;1458;49.728;9.228;2023-04-01T08:30:31;11.30;99.90
2897;DHT22;1458;49.728;9.228;2023-04-01T08:33:09;11.30;99.90
2897;DHT22;1458;49.728;9.228;2023-04-01T08:35:42;11.30;99.90
2897;DHT22;1458;49.728;9.228;2023-04-01T08:38:17;11.50;99.90
2897;DHT22;1458;49.728;9.228;2023-04-01T08:40:59;11.40;99.90
2897;DHT22;1458;49.728;9.228;2023-04-01T08:44:04;11.50;99.90
2897;DHT22;1458;49.728;9.228;2023-04-01T08:53:47;11.20;99.90
2897;DHT22;1458;49.728;9.228;2023-04-01T08:56:35;11.00;99.90
2897;DHT22;1458;49.728;9.228;2023-04-01T08:59:37;11.00;99.90
2897;DHT22;1458;49.728;9.228;2023-04-01T09:03:27;11.10;99.90
2897;DHT22;1458;49.728;9.228;2023-04-01T09:06:32;11.20;99.90
2897;DHT22;1458;49.728;9.228;2023-04-01T09:12:33;11.00;99.90
2897;DHT22;1458;49.728;9.228;2023-04-01T09:15:25;11.20;99.90
2897;DHT22;1458;49.728;9.228;2023-04-01T09:24:41;11.20;99.90
2897;DHT22;1458;49.728;9.228;2023-04-01T09:27:26;11.30;99.90
2897;DHT22;1458;49.728;9.228;2023-04-01T09:30:31;11.30;99.90
2897;DHT22;1458;49.728;9.228;2023-04-01T09:33:54;11.50;99.90
2897;DHT22;1458;49.728;9.228;2023-04-01T09:37:10;11.80;99.90
2897;DHT22;1458;49.728;9.228;2023-04-01T09:40:03;12.10;99.90
2897;DHT22;1458;49.728;9.228;2023-04-01T09:45:48;12.10;99.90
2897;DHT22;1458;49.728;9.228;2023-04-01T09:48:41;12.10;99.90
2897;DHT22;1458;49.728;9.228;2023-04-01T09:51:37;12.20;99.90
2897;DHT22;1458;49.728;9.228;2023-04-01T09:54:24;12.20;99.90
2897;DHT22;1458;49.728;9.228;2023-04-01T09:57:22;12.20;99.90
2897;DHT22;1458;49.728;9.228;2023-04-01T10:07:25;12.20;99.90
2897;DHT22;1458;49.728;9.228;2023-04-01T10:10:32;12.20;99.90
2897;DHT22;1458;49.728;9.228;2023-04-01T10:13:37;12.00;99.90
2897;DHT22;1458;49.728;9.228;2023-04-01T10:23:34;11.80;99.90
2897;DHT22;1458;49.728;9.228;2023-04-01T10:30:05;11.80;99.90
2897;DHT22;1458;49.728;9.228;2023-04-01T10:33:16;11.60;99.90
2897;DHT22;1458;49.728;9.228;2023-04-01T10:39:49;11.50;99.90
2897;DHT22;1458;49.728;9.228;2023-04-01T10:43:27;11.40;99.90
2897;DHT22;1458;49.728;9.228;2023-04-01T10:46:52;11.20;99.90
2897;DHT22;1458;49.728;9.228;2023-04-01T10:50:04;11.40;99.90
2897;DHT22;1458;49.728;9.228;2023-04-01T10:53:05;11.60;99.90
2897;DHT22;1458;49.728;9.228;2023-04-01T10:59:58;11.80;99.90
2897;DHT22;1458;49.728;9.228;2023-04-01T11:03:31;11.80;99.90
2897;DHT22;1458;49.728;9.228;2023-04-01T11:10:26;11.90;99.90
2897;DHT22;1458;49.728;9.228;2023-04-01T11:13:48;11.90;99.90
2897;DHT22;1458;49.728;9.228;2023-04-01T11:26:41;12.10;99.90
2897;DHT22;1458;49.728;9.228;2023-04-01T11:29:41;12.20;99.90
2897;DHT22;1458;49.728;9.228;2023-04-01T11:32:30;12.10;99.90
2897;DHT22;1458;49.728;9.228;2023-04-01T11:35:36;12.00;99.90
2897;DHT22;1458;49.728;9.228;2023-04-01T11:38:23;12.00;99.90
2897;DHT22;1458;49.728;9.228;2023-04-01T11:41:25;12.10;99.90
2897;DHT22;1458;49.728;9.228;2023-04-01T11:44:20;12.10;99.90
2897;DHT22;1458;49.728;9.228;2023-04-01T11:47:44;12.20;99.90
2897;DHT22;1458;49.728;9.228;2023-04-01T11:50:22;12.30;99.90
2897;DHT22;1458;49.728;9.228;2023-04-01T11:53:14;12.20;99.90
2897;DHT22;1458;49.728;9.228;2023-04-01T11:55:54;12.00;99.90
2897;DHT22;1458;49.728;9.228;2023-04-01T11:58:58;11.90;99.90
2897;DHT22;1458;49.728;9.228;2023-04-01T12:01:47;11.90;99.90
2897;DHT22;1458;49.728;9.228;2023-04-01T12:04:36;11.80;99.90
2897;DHT22;1458;49.728;9.228;2023-04-01T12:07:19;11.70;99.90
2897;DHT22;1458;49.728;9.228;2023-04-01T12:09:57;11.70;99.90
2897;DHT22;1458;49.728;9.228;2023-04-01T12:12:35;11.60;99.90
2897;DHT22;1458;49.728;9.228;2023-04-01T12:15:19;11.60;99.90
2897;DHT22;1458;49.728;9.228;2023-04-01T12:18:00;11.60;99.90
2897;DHT22;1458;49.728;9.228;2023-04-01T12:20:39;11.50;99.90
2897;DHT22;1458;49.728;9.228;2023-04-01T12:29:44;11.40;99.90
2897;DHT22;1458;49.728;9.228;2023-04-01T12:32:24;11.40;99.90
2897;DHT22;1458;49.728;9.228;2023-04-01T12:35:16;11.40;99.90
2897;DHT22;1458;49.728;9.228;2023-04-01T12:38:04;11.40;99.90
2897;DHT22;1458;49.728;9.228;2023-04-01T12:40:54;11.60;99.90
2897;DHT22;1458;49.728;9.228;2023-04-01T12:43:57;11.80;99.90
2897;DHT22;1458;49.728;9.228;2023-04-01T12:49:59;11.80;99.90
2897;DHT22;1458;49.728;9.228;2023-04-01T12:52:48;11.80;99.90
2897;DHT22;1458;49.728;9.228;2023-04-01T12:55:38;11.90;99.90
2897;DHT22;1458;49.728;9.228;2023-04-01T12:58:38;12.10;99.90
2897;DHT22;1458;49.728;9.228;2023-04-01T13:01:59;12.20;99.90
2897;DHT22;1458;49.728;9.228;2023-04-01T13:04:48;12.00;99.90
2897;DHT22;1458;49.728;9.228;2023-04-01T13:07:36;11.90;99.90
2897;DHT22;1458;49.728;9.228;2023-04-01T13:10:31;11.90;99.90
2897;DHT22;1458;49.728;9.228;2023-04-01T13:13:18;11.90;99.90
2897;DHT22;1458;49.728;9.228;2023-04-01T13:15:55;12.00;99.90
2897;DHT22;1458;49.728;9.228;2023-04-01T13:18:32;12.20;99.90
2897;DHT22;1458;49.728;9.228;2023-04-01T13:21:13;12.30;99.90
2897;DHT22;1458;49.728;9.228;2023-04-01T13:23:56;12.40;99.90
2897;DHT22;1458;49.728;9.228;2023-04-01T13:26:34;12.40;99.90
2897;DHT22;1458;49.728;9.228;2023-04-01T13:29:09;12.30;99.90
2897;DHT22;1458;49.728;9.228;2023-04-01T13:31:50;12.30;99.90
2897;DHT22;1458;49.728;9.228;2023-04-01T13:34:38;12.40;99.90
2897;DHT22;1458;49.728;9.228;2023-04-01T13:37:30;12.50;99.90
2897;DHT22;1458;49.728;9.228;2023-04-01T13:40:33;12.40;99.90
2897;DHT22;1458;49.728;9.228;2023-04-01T13:43:12;12.40;99.90
2897;DHT22;1458;49.728;9.228;2023-04-01T13:46:03;12.30;99.90
2897;DHT22;1458;49.728;9.228;2023-04-01T13:49:12;12.10;99.90
2897;DHT22;1458;49.728;9.228;2023-04-01T13:52:17;11.90;99.90
2897;DHT22;1458;49.728;9.228;2023-04-01T14:01:38;11.90;99.90
2897;DHT22;1458;49.728;9.228;2023-04-01T14:04:47;11.80;99.90
2897;DHT22;1458;49.728;9.228;2023-04-01T14:07:32;11.70;99.90
2897;DHT22;1458;49.728;9.228;2023-04-01T14:10:18;11.70;99.90
2897;DHT22;1458;49.728;9.228;2023-04-01T14:12:58;11.60;99.90
2897;DHT22;1458;49.728;9.228;2023-04-01T14:15:42;11.50;99.90
2897;DHT22;1458;49.728;9.228;2023-04-01T14:18:49;11.50;99.90
2897;DHT22;1458;49.728;9.228;2023-04-01T14:21:30;11.60;99.90
2897;DHT22;1458;49.728;9.228;2023-04-01T14:24:21;11.40;99.90
2897;DHT22;1458;49.728;9.228;2023-04-01T14:27:25;11.30;99.90
2897;DHT22;1458;49.728;9.228;2023-04-01T14:30:34;11.30;99.90
2897;DHT22;1458;49.728;9.228;2023-04-01T14:33:22;11.30;99.90
2897;DHT22;1458;49.728;9.228;2023-04-01T14:36:19;11.40;99.90
2897;DHT22;1458;49.728;9.228;2023-04-01T14:39:04;11.50;99.90
2897;DHT22;1458;49.728;9.228;2023-04-01T14:41:48;11.60;99.90
2897;DHT22;1458;49.728;9.228;2023-04-01T14:44:28;11.80;99.90
2897;DHT22;1458;49.728;9.228;2023-04-01T14:47:24;11.80;99.90
2897;DHT22;1458;49.728;9.228;2023-04-01T14:50:08;11.80;99.90
2897;DHT22;1458;49.728;9.228;2023-04-01T14:52:43;11.60;99.90
2897;DHT22;1458;49.728;9.228;2023-04-01T14:55:33;11.50;99.90
2897;DHT22;1458;49.728;9.228;2023-04-01T14:58:13;11.60;99.90
2897;DHT22;1458;49.728;9.228;2023-04-01T15:00:48;11.70;99.90
2897;DHT22;1458;49.728;9.228;2023-04-01T15:03:24;11.90;99.90
2897;DHT22;1458;49.728;9.228;2023-04-01T15:06:00;11.90;99.90
2897;DHT22;1458;49.728;9.228;2023-04-01T15:08:58;11.80;99.90
2897;DHT22;1458;49.728;9.228;2023-04-01T15:11:41;11.70;99.90
2897;DHT22;1458;49.728;9.228;2023-04-01T15:14:40;11.60;99.90
2897;DHT22;1458;49.728;9.228;2023-04-01T15:17:37;11.60;99.90
2897;DHT22;1458;49.728;9.228;2023-04-01T15:20:29;11.70;99.90
2897;DHT22;1458;49.728;9.228;2023-04-01T15:23:31;11.90;99.90
2897;DHT22;1458;49.728;9.228;2023-04-01T15:26:25;12.00;99.90
2897;DHT22;1458;49.728;9.228;2023-04-01T15:32:17;11.90;99.90
2897;DHT22;1458;49.728;9.228;2023-04-01T15:34:55;11.90;99.90
2897;DHT22;1458;49.728;9.228;2023-04-01T15:37:33;11.90;99.90
2897;DHT22;1458;49.728;9.228;2023-04-01T15:40:19;11.80;99.90
2897;DHT22;1458;49.728;9.228;2023-04-01T15:43:18;11.70;99.90
2897;DHT22;1458;49.728;9.228;2023-04-01T15:45:58;11.50;99.90
2897;DHT22;1458;49.728;9.228;2023-04-01T15:48:55;11.30;99.90
2897;DHT22;1458;49.728;9.228;2023-04-01T15:55:07;11.20;99.90
2897;DHT22;1458;49.728;9.228;2023-04-01T15:57:48;11.20;99.90
2897;DHT22;1458;49.728;9.228;2023-04-01T16:00:42;11.30;99.90
2897;DHT22;1458;49.728;9.228;2023-04-01T16:03:23;11.30;99.90
2897;DHT22;1458;49.728;9.228;2023-04-01T16:06:23;11.40;99.90
2897;DHT22;1458;49.728;9.228;2023-04-01T16:09:17;11.50;99.90
2897;DHT22;1458;49.728;9.228;2023-04-01T16:11:58;11.50;99.90
2897;DHT22;1458;49.728;9.228;2023-04-01T16:14:38;11.60;99.90
2897;DHT22;1458;49.728;9.228;2023-04-01T16:17:35;11.70;99.90
2897;DHT22;1458;49.728;9.228;2023-04-01T16:20:20;11.60;99.90
2897;DHT22;1458;49.728;9.228;2023-04-01T16:22:55;11.50;99.90
2897;DHT22;1458;49.728;9.228;2023-04-01T16:25:32;11.50;99.90
2897;DHT22;1458;49.728;9.228;2023-04-01T16:28:19;11.60;99.90
2897;DHT22;1458;49.728;9.228;2023-04-01T16:30:56;11.70;99.90
2897;DHT22;1458;49.728;9.228;2023-04-01T16:33:35;11.70;99.90
2897;DHT22;1458;49.728;9.228;2023-04-01T16:36:13;11.70;99.90
2897;DHT22;1458;49.728;9.228;2023-04-01T16:39:06;11.60;99.90
2897;DHT22;1458;49.728;9.228;2023-04-01T16:41:42;11.50;99.90
2897;DHT22;1458;49.728;9.228;2023-04-01T16:44:21;11.40;99.90
2897;DHT22;1458;49.728;9.228;2023-04-01T16:46:52;11.20;99.90
2897;DHT22;1458;49.728;9.228;2023-04-01T16:49:30;11.20;99.90
2897;DHT22;1458;49.728;9.228;2023-04-01T16:52:12;11.10;99.90
2897;DHT22;1458;49.728;9.228;2023-04-01T16:54:47;11.10;99.90
2897;DHT22;1458;49.728;9.228;2023-04-01T16:57:23;11.10;99.90
2897;DHT22;1458;49.728;9.228;2023-04-01T16:59:57;11.10;99.90
2897;DHT22;1458;49.728;9.228;2023-04-01T17:02:31;11.10;99.90
2897;DHT22;1458;49.728;9.228;2023-04-01T17:05:07;11.00;99.90
2897;DHT22;1458;49.728;9.228;2023-04-01T17:07:46;11.10;99.90
2897;DHT22;1458;49.728;9.228;2023-04-01T17:10:32;11.10;99.90
2897;DHT22;1458;49.728;9.228;2023-04-01T17:13:29;11.10;99.90
2897;DHT22;1458;49.728;9.228;2023-04-01T17:16:14;11.10;99.90
2897;DHT22;1458;49.728;9.228;2023-04-01T17:18:59;11.00;99.90
2897;DHT22;1458;49.728;9.228;2023-04-01T17:21:45;10.90;99.90
2897;DHT22;1458;49.728;9.228;2023-04-01T17:24:28;10.90;99.90
2897;DHT22;1458;49.728;9.228;2023-04-01T17:27:12;10.90;99.90
2897;DHT22;1458;49.728;9.228;2023-04-01T17:30:03;10.80;99.90
2897;DHT22;1458;49.728;9.228;2023-04-01T17:32:51;10.80;99.90
2897;DHT22;1458;49.728;9.228;2023-04-01T17:35:27;10.80;99.90
2897;DHT22;1458;49.728;9.228;2023-04-01T17:38:07;10.70;99.90
2897;DHT22;1458;49.728;9.228;2023-04-01T17:40:53;10.70;99.90
2897;DHT22;1458;49.728;9.228;2023-04-01T17:43:32;10.80;99.90
2897;DHT22;1458;49.728;9.228;2023-04-01T17:46:20;10.70;99.90
2897;DHT22;1458;49.728;9.228;2023-04-01T17:48:58;10.60;99.90
2897;DHT22;1458;49.728;9.228;2023-04-01T17:51:35;10.50;99.90
2897;DHT22;1458;49.728;9.228;2023-04-01T17:54:19;10.50;99.90
2897;DHT22;1458;49.728;9.228;2023-04-01T17:57:00;10.50;99.90
2897;DHT22;1458;49.728;9.228;2023-04-01T17:59:37;10.60;99.90
2897;DHT22;1458;49.728;9.228;2023-04-01T18:02:17;10.50;99.90
2897;DHT22;1458;49.728;9.228;2023-04-01T18:05:20;10.50;99.90
2897;DHT22;1458;49.728;9.228;2023-04-01T18:08:12;10.50;99.90
2897;DHT22;1458;49.728;9.228;2023-04-01T18:10:58;10.50;99.90
2897;DHT22;1458;49.728;9.228;2023-04-01T18:13:54;10.40;99.90
2897;DHT22;1458;49.728;9.228;2023-04-01T18:17:12;10.30;99.90
2897;DHT22;1458;49.728;9.228;2023-04-01T18:22:53;10.30;99.90
2897;DHT22;1458;49.728;9.228;2023-04-01T18:25:27;10.30;99.90
2897;DHT22;1458;49.728;9.228;2023-04-01T18:28:16;10.30;99.90
2897;DHT22;1458;49.728;9.228;2023-04-01T18:30:51;10.30;99.90
2897;DHT22;1458;49.728;9.228;2023-04-01T18:33:25;10.30;99.90
2897;DHT22;1458;49.728;9.228;2023-04-01T18:36:08;10.30;99.90
2897;DHT22;1458;49.728;9.228;2023-04-01T18:38:46;10.30;99.90
2897;DHT22;1458;49.728;9.228;2023-04-01T18:41:22;10.30;99.90
2897;DHT22;1458;49.728;9.228;2023-04-01T18:44:04;10.30;99.90
2897;DHT22;1458;49.728;9.228;2023-04-01T18:46:49;10.30;99.90
2897;DHT22;1458;49.728;9.228;2023-04-01T18:49:27;10.30;99.90
2897;DHT22;1458;49.728;9.228;2023-04-01T18:51:59;10.30;99.90
2897;DHT22;1458;49.728;9.228;2023-04-01T18:54:32;10.30;99.90
2897;DHT22;1458;49.728;9.228;2023-04-01T18:57:04;10.30;99.90
2897;DHT22;1458;49.728;9.228;2023-04-01T18:59:40;10.20;99.90
2897;DHT22;1458;49.728;9.228;2023-04-01T19:02:20;10.20;99.90
2897;DHT22;1458;49.728;9.228;2023-04-01T19:04:57;10.20;99.90
2897;DHT22;1458;49.728;9.228;2023-04-01T19:07:45;10.10;99.90
2897;DHT22;1458;49.728;9.228;2023-04-01T19:10:17;10.10;99.90
2897;DHT22;1458;49.728;9.228;2023-04-01T19:13:03;10.10;99.90